Time;durP1;ratioP1;P1;durP2;ratioP2;P2;SDS_P1;SDS_P2;PMS_P1;PMS_P2;Temp;Humidity;BMP_temperature;BMP_pressure;BME280_temperature;BME280_humidity;BME280_pressure;Samples;Min_cycle;Max_cycle;Signal;HPM_P1;HPM_P2
2022/11/23 00:00:10;;;;;;;;;;;;;;;12.64;73.67;99125.22;1048769;28;1059;-65
2022/11/23 00:01:01;;;;;;;;;;;;;;;12.63;73.32;99126.19;1049628;28;703;-65
2022/11/23 00:01:51;;;;;;;;;;;;;;;12.67;74.12;99134.75;1049641;28;1190;-64
2022/11/23 00:02:42;;;;;;;;;;;;;;;12.66;73.83;99123.22;1049813;28;589;-65
2022/11/23 00:03:32;;;;;;;;;;;;;;;12.66;73.74;99130.41;1048257;28;937;-65
2022/11/23 00:04:24;;;;;;;;;;;;;;;12.65;74.14;99126.88;1049075;28;723;-65
2022/11/23 00:05:15;;;;;;;;;;;;;;;12.66;74.11;99125.91;1046153;28;644;-65
2022/11/23 00:06:05;;;;;;;;;;;;;;;12.66;73.64;99128.56;1045648;28;644;-65
2022/11/23 00:06:55;;;;;;;;;;;;;;;12.70;73.94;99132.63;1048447;28;1119;-65
2022/11/23 00:07:46;;;;;;;;;;;;;;;12.70;73.50;99129.94;1048784;28;669;-65
2022/11/23 00:08:36;;;;;;;;;;;;;;;12.71;73.72;99128.97;1049397;28;1253;-65
2022/11/23 00:09:27;;;;;;;;;;;;;;;12.68;73.47;99120.41;1049248;28;638;-65
2022/11/23 00:10:17;;;;;;;;;;;;;;;12.62;73.64;99132.53;1051178;28;1357;-65
2022/11/23 00:11:08;;;;;;;;;;;;;;;12.64;74.23;99127.03;1054248;28;1977;-65
2022/11/23 00:11:58;;;;;;;;;;;;;;;12.64;73.32;99125.22;1049056;28;646;-65
2022/11/23 00:12:49;;;;;;;;;;;;;;;12.58;73.12;99131.16;1052962;28;1191;-64
2022/11/23 00:13:39;;;;;;;;;;;;;;;12.60;73.49;99131.84;1056221;28;1229;-65
2022/11/23 00:14:30;;;;;;;;;;;;;;;12.58;73.59;99130.31;1057162;28;713;-65
2022/11/23 00:15:20;;;;;;;;;;;;;;;12.60;73.48;99134.53;1049853;28;656;-64
2022/11/23 00:16:10;;;;;;;;;;;;;;;12.48;73.02;99141.94;1051805;28;1167;-65
2022/11/23 00:17:01;;;;;;;;;;;;;;;12.52;74.27;99137.16;1052823;28;707;-65
2022/11/23 00:17:51;;;;;;;;;;;;;;;12.53;74.50;99146.84;1051788;28;710;-65
2022/11/23 00:18:42;;;;;;;;;;;;;;;12.46;73.33;99140.41;1052636;28;1187;-64
2022/11/23 00:19:32;;;;;;;;;;;;;;;12.47;74.13;99145.59;1054432;28;789;-66
2022/11/23 00:20:23;;;;;;;;;;;;;;;12.40;74.05;99139.19;1052507;28;1179;-65
2022/11/23 00:21:13;;;;;;;;;;;;;;;12.45;74.46;99142.25;1053682;28;1043;-64
2022/11/23 00:22:03;;;;;;;;;;;;;;;12.51;74.60;99152.34;1053877;28;699;-65
2022/11/23 00:22:54;;;;;;;;;;;;;;;12.51;74.67;99152.34;1049653;28;690;-65
2022/11/23 00:23:44;;;;;;;;;;;;;;;12.51;73.49;99149.66;1048577;28;630;-65
2022/11/23 00:24:35;;;;;;;;;;;;;;;12.47;73.47;99156.28;1049766;28;582;-65
2022/11/23 00:25:25;;;;;;;;;;;;;;;12.50;74.64;99150.66;1048350;28;705;-65
2022/11/23 00:26:15;;;;;;;;;;;;;;;12.53;74.74;99154.84;1052232;28;1327;-65
2022/11/23 00:27:06;;;;;;;;;;;;;;;12.57;74.31;99150.03;1049072;28;642;-65
2022/11/23 00:27:56;;;;;;;;;;;;;;;12.59;74.28;99154.22;1050908;28;1071;-65
2022/11/23 00:28:47;;;;;;;;;;;;;;;12.62;73.35;99155.75;1049460;28;697;-65
2022/11/23 00:29:37;;;;;;;;;;;;;;;12.60;73.51;99161.25;1052308;28;1131;-65
2022/11/23 00:30:28;;;;;;;;;;;;;;;12.59;73.58;99156.06;1054297;28;726;-65
2022/11/23 00:31:18;;;;;;;;;;;;;;;12.59;74.39;99154.22;1048904;28;1893;-65
2022/11/23 00:32:09;;;;;;;;;;;;;;;12.61;74.19;99162.94;1051688;28;1088;-64
2022/11/23 00:32:59;;;;;;;;;;;;;;;12.60;74.14;99160.41;1052580;28;666;-64
2022/11/23 00:33:50;;;;;;;;;;;;;;;12.62;73.73;99161.09;1051443;28;712;-64
2022/11/23 00:34:40;;;;;;;;;;;;;;;12.60;73.50;99161.25;1052613;28;688;-64
2022/11/23 00:35:31;;;;;;;;;;;;;;;12.51;73.64;99159.50;1052329;28;973;-64
2022/11/23 00:36:21;;;;;;;;;;;;;;;12.45;72.97;99162.78;1054324;28;701;-64
2022/11/23 00:37:12;;;;;;;;;;;;;;;12.44;74.38;99166.44;1054011;28;992;-64
2022/11/23 00:38:02;;;;;;;;;;;;;;;12.45;73.83;99174.31;1054382;28;665;-64
2022/11/23 00:38:56;;;;;;;;;;;;;;;12.45;73.81;99162.78;1050560;28;1130;-65
2022/11/23 00:39:47;;;;;;;;;;;;;;;12.42;73.55;99168.44;1053725;28;656;-64
2022/11/23 00:40:37;;;;;;;;;;;;;;;12.47;74.62;99166.97;1050642;28;1142;-65
2022/11/23 00:41:28;;;;;;;;;;;;;;;12.41;73.92;99162.25;1054270;28;602;-64
2022/11/23 00:42:18;;;;;;;;;;;;;;;12.46;74.87;99165.31;1049484;28;606;-65
2022/11/23 00:43:09;;;;;;;;;;;;;;;12.47;74.09;99164.31;1049034;28;665;-64
2022/11/23 00:43:59;;;;;;;;;;;;;;;12.43;73.36;99178.13;1050061;28;629;-65
2022/11/23 00:44:49;;;;;;;;;;;;;;;12.49;74.27;99169.50;1053324;28;743;-65
2022/11/23 00:45:40;;;;;;;;;;;;;;;12.44;73.68;99161.94;1057545;28;1122;-64
2022/11/23 00:46:30;;;;;;;;;;;;;;;12.48;74.10;99170.50;1053174;28;921;-65
2022/11/23 00:47:21;;;;;;;;;;;;;;;12.44;74.14;99163.78;1049021;28;588;-64
2022/11/23 00:48:11;;;;;;;;;;;;;;;12.48;74.70;99178.50;1051398;28;662;-64
2022/11/23 00:49:03;;;;;;;;;;;;;;;12.50;73.61;99172.03;1049005;28;694;-64
2022/11/23 00:49:53;;;;;;;;;;;;;;;12.52;74.45;99167.38;1051626;28;992;-64
2022/11/23 00:50:43;;;;;;;;;;;;;;;12.57;73.80;99168.72;1053715;28;641;-65
2022/11/23 00:51:34;;;;;;;;;;;;;;;12.57;73.42;99168.72;1054145;28;1898;-64
2022/11/23 00:52:24;;;;;;;;;;;;;;;12.45;73.67;99174.31;1054193;28;723;-63
2022/11/23 00:53:15;;;;;;;;;;;;;;;12.40;73.68;99170.41;1053533;28;1039;-63
2022/11/23 00:54:05;;;;;;;;;;;;;;;12.41;74.08;99178.28;1053966;28;1150;-65
2022/11/23 00:54:56;;;;;;;;;;;;;;;12.45;74.51;99174.31;1045085;28;639;-63
2022/11/23 00:55:46;;;;;;;;;;;;;;;12.45;73.67;99178.81;1048192;28;1148;-65
2022/11/23 00:56:37;;;;;;;;;;;;;;;12.47;74.39;99177.66;1049984;28;1047;-65
2022/11/23 00:57:27;;;;;;;;;;;;;;;12.52;74.10;99172.72;1048729;28;677;-65
2022/11/23 00:58:17;;;;;;;;;;;;;;;12.52;74.23;99180.72;1052958;28;751;-65
2022/11/23 00:59:08;;;;;;;;;;;;;;;12.55;73.92;99176.03;1049285;28;653;-65
2022/11/23 00:59:58;;;;;;;;;;;;;;;12.55;74.13;99178.72;1050356;28;1048;-62
2022/11/23 01:00:49;;;;;;;;;;;;;;;12.51;73.92;99178.22;1053481;28;850;-64
2022/11/23 01:01:39;;;;;;;;;;;;;;;12.49;74.26;99177.53;1051651;28;1217;-63
2022/11/23 01:02:30;;;;;;;;;;;;;;;12.50;74.29;99180.03;1053587;28;749;-63
2022/11/23 01:03:20;;;;;;;;;;;;;;;12.49;73.76;99189.06;1048925;28;724;-63
2022/11/23 01:04:10;;;;;;;;;;;;;;;12.49;74.29;99190.88;1051290;28;695;-63
2022/11/23 01:05:01;;;;;;;;;;;;;;;12.52;73.93;99182.56;1048378;28;677;-64
2022/11/23 01:05:51;;;;;;;;;;;;;;;12.50;73.86;99192.56;1051173;28;734;-64
2022/11/23 01:06:42;;;;;;;;;;;;;;;12.48;74.03;99191.88;1052330;28;1314;-63
2022/11/23 01:07:32;;;;;;;;;;;;;;;12.51;74.77;99191.56;1052700;28;698;-63
2022/11/23 01:08:23;;;;;;;;;;;;;;;12.53;74.18;99197.59;1052036;28;1162;-63
2022/11/23 01:09:13;;;;;;;;;;;;;;;12.38;73.46;99193.75;1053928;28;787;-63
2022/11/23 01:10:03;;;;;;;;;;;;;;;12.41;74.02;99194.31;1048709;28;1109;-63
2022/11/23 01:10:54;;;;;;;;;;;;;;;12.45;74.87;99194.84;1048590;28;1118;-63
2022/11/23 01:11:44;;;;;;;;;;;;;;;12.45;74.88;99194.84;1053262;28;637;-63
2022/11/23 01:12:35;;;;;;;;;;;;;;;12.47;74.34;99193.69;1052277;28;1135;-63
2022/11/23 01:13:25;;;;;;;;;;;;;;;12.48;74.48;99197.22;1054217;28;669;-63
2022/11/23 01:14:16;;;;;;;;;;;;;;;12.42;73.22;99192.47;1049457;28;648;-63
2022/11/23 01:15:06;;;;;;;;;;;;;;;12.45;74.22;99194.84;1049998;28;669;-63
2022/11/23 01:15:57;;;;;;;;;;;;;;;12.44;73.49;99194.00;1046151;28;596;-63
2022/11/23 01:16:47;;;;;;;;;;;;;;;12.35;74.05;99194.09;1049495;28;1286;-63
2022/11/23 01:17:38;;;;;;;;;;;;;;;12.34;74.23;99195.06;1053465;28;617;-63
2022/11/23 01:18:28;;;;;;;;;;;;;;;12.37;74.32;99198.25;1049251;28;753;-64
2022/11/23 01:19:18;;;;;;;;;;;;;;;12.40;75.08;99199.78;1052126;28;1210;-64
2022/11/23 01:20:09;;;;;;;;;;;;;;;12.45;74.81;99200.19;1053934;28;723;-64
2022/11/23 01:20:59;;;;;;;;;;;;;;;12.44;74.54;99199.34;1052334;28;661;-64
2022/11/23 01:21:50;;;;;;;;;;;;;;;12.44;74.63;99204.69;1050616;28;685;-63
2022/11/23 01:22:40;;;;;;;;;;;;;;;12.41;74.36;99204.16;1052258;28;709;-64
2022/11/23 01:23:31;;;;;;;;;;;;;;;12.42;74.18;99204.00;1051395;28;1260;-64
2022/11/23 01:24:21;;;;;;;;;;;;;;;12.47;74.24;99198.22;1048912;28;661;-64
2022/11/23 01:25:11;;;;;;;;;;;;;;;12.46;73.67;99201.88;1052343;28;682;-64
2022/11/23 01:26:02;;;;;;;;;;;;;;;12.47;74.13;99211.56;1052350;28;1106;-64
2022/11/23 01:26:52;;;;;;;;;;;;;;;12.45;73.54;99202.84;1053555;28;808;-64
2022/11/23 01:27:43;;;;;;;;;;;;;;;12.39;74.14;99206.97;1048842;28;637;-64
2022/11/23 01:28:33;;;;;;;;;;;;;;;12.41;74.69;99199.63;1051886;28;1032;-64
2022/11/23 01:29:23;;;;;;;;;;;;;;;12.40;73.79;99202.47;1054212;28;676;-64
2022/11/23 01:30:14;;;;;;;;;;;;;;;12.42;73.78;99204.00;1051923;28;1092;-64
2022/11/23 01:31:04;;;;;;;;;;;;;;;12.46;73.73;99200.03;1054123;28;666;-64
2022/11/23 01:31:55;;;;;;;;;;;;;;;12.45;74.64;99202.84;1049618;28;1063;-64
2022/11/23 01:32:45;;;;;;;;;;;;;;;12.40;74.23;99199.78;1054170;28;673;-64
2022/11/23 01:33:36;;;;;;;;;;;;;;;12.46;73.68;99207.22;1052474;28;1099;-64
2022/11/23 01:34:26;;;;;;;;;;;;;;;12.45;73.80;99210.88;1053421;28;1151;-64
2022/11/23 01:35:17;;;;;;;;;;;;;;;12.39;73.68;99208.78;1052408;28;618;-63
2022/11/23 01:36:07;;;;;;;;;;;;;;;12.39;74.15;99206.13;1051383;28;666;-64
2022/11/23 01:36:57;;;;;;;;;;;;;;;12.31;73.80;99206.91;1050661;28;685;-64
2022/11/23 01:37:48;;;;;;;;;;;;;;;12.35;74.48;99210.94;1049776;28;877;-64
2022/11/23 01:38:38;;;;;;;;;;;;;;;12.38;74.24;99209.78;1054127;28;716;-63
2022/11/23 01:39:29;;;;;;;;;;;;;;;12.30;73.64;99209.72;1053526;28;710;-64
2022/11/23 01:40:19;;;;;;;;;;;;;;;12.32;73.75;99208.56;1048719;28;676;-64
2022/11/23 01:41:10;;;;;;;;;;;;;;;12.35;73.95;99207.44;1051154;28;698;-63
2022/11/23 01:42:00;;;;;;;;;;;;;;;12.38;74.88;99210.63;1048755;28;946;-64
2022/11/23 01:42:50;;;;;;;;;;;;;;;12.43;73.93;99218.19;1052822;28;944;-64
2022/11/23 01:43:41;;;;;;;;;;;;;;;12.43;73.85;99208.34;1054068;28;696;-64
2022/11/23 01:44:31;;;;;;;;;;;;;;;12.44;74.28;99207.34;1049972;28;632;-64
2022/11/23 01:45:22;;;;;;;;;;;;;;;12.48;73.85;99208.75;1049386;28;1206;-63
2022/11/23 01:46:12;;;;;;;;;;;;;;;12.49;73.88;99206.91;1049293;28;658;-64
2022/11/23 01:47:02;;;;;;;;;;;;;;;12.51;74.06;99207.59;1049918;28;681;-64
2022/11/23 01:47:53;;;;;;;;;;;;;;;12.46;73.97;99208.06;1049358;28;646;-64
2022/11/23 01:48:43;;;;;;;;;;;;;;;12.46;73.45;99212.56;1051079;28;1248;-64
2022/11/23 01:49:34;;;;;;;;;;;;;;;12.48;73.96;99210.56;1049882;28;757;-64
2022/11/23 01:50:24;;;;;;;;;;;;;;;12.45;73.53;99219.72;1049310;28;700;-64
2022/11/23 01:51:15;;;;;;;;;;;;;;;12.47;74.55;99219.56;1049273;28;1890;-64
2022/11/23 01:52:05;;;;;;;;;;;;;;;12.48;74.75;99215.91;1050105;28;1225;-64
2022/11/23 01:52:55;;;;;;;;;;;;;;;12.51;74.42;99215.63;1052921;28;693;-63
2022/11/23 01:53:46;;;;;;;;;;;;;;;12.51;74.58;99221.81;1051459;28;1386;-63
2022/11/23 01:54:36;;;;;;;;;;;;;;;12.51;74.49;99221.81;1052692;28;1210;-63
2022/11/23 01:55:27;;;;;;;;;;;;;;;12.52;74.51;99217.31;1053962;28;681;-63
2022/11/23 01:56:17;;;;;;;;;;;;;;;12.43;74.19;99215.53;1051098;28;992;-63
2022/11/23 01:57:08;;;;;;;;;;;;;;;12.41;74.12;99210.31;1053991;28;721;-63
2022/11/23 01:57:58;;;;;;;;;;;;;;;12.47;74.97;99208.88;1053450;28;1547;-64
2022/11/23 01:58:48;;;;;;;;;;;;;;;12.46;74.44;99217.91;1053206;28;992;-63
2022/11/23 01:59:39;;;;;;;;;;;;;;;12.45;74.07;99217.06;1054021;28;661;-64
2022/11/23 02:00:29;;;;;;;;;;;;;;;12.49;74.61;99214.94;1053444;28;1070;-64
2022/11/23 02:01:20;;;;;;;;;;;;;;;12.51;74.78;99215.63;1053959;28;749;-64
2022/11/23 02:02:10;;;;;;;;;;;;;;;12.50;74.47;99214.78;1053647;28;1035;-63
2022/11/23 02:03:01;;;;;;;;;;;;;;;12.51;73.70;99220.97;1054169;28;680;-63
2022/11/23 02:03:51;;;;;;;;;;;;;;;12.54;74.53;99217.16;1049309;28;684;-64
2022/11/23 02:04:42;;;;;;;;;;;;;;;12.48;74.61;99215.91;1050569;28;1140;-63
2022/11/23 02:05:32;;;;;;;;;;;;;;;12.41;74.41;99218.34;1048838;28;637;-63
2022/11/23 02:06:22;;;;;;;;;;;;;;;12.45;73.89;99216.22;1049284;28;645;-63
2022/11/23 02:07:13;;;;;;;;;;;;;;;12.44;73.92;99215.38;1049319;28;716;-64
2022/11/23 02:08:03;;;;;;;;;;;;;;;12.47;74.10;99214.22;1048893;28;679;-63
2022/11/23 02:08:54;;;;;;;;;;;;;;;12.50;74.86;99213.94;1044401;28;694;-63
2022/11/23 02:09:44;;;;;;;;;;;;;;;12.53;74.36;99216.31;1041830;28;989;-63
2022/11/23 02:10:35;;;;;;;;;;;;;;;12.53;74.33;99221.66;1049238;28;736;-63
2022/11/23 02:11:25;;;;;;;;;;;;;;;12.54;74.40;99223.31;1052665;28;1977;-63
2022/11/23 02:12:15;;;;;;;;;;;;;;;12.54;74.43;99215.28;1052072;28;626;-63
2022/11/23 02:13:06;;;;;;;;;;;;;;;12.57;74.62;99219.50;1046673;28;720;-63
2022/11/23 02:13:56;;;;;;;;;;;;;;;12.55;74.39;99225.00;1051632;28;1139;-63
2022/11/23 02:14:47;;;;;;;;;;;;;;;12.55;73.62;99222.31;1054007;28;706;-64
2022/11/23 02:15:37;;;;;;;;;;;;;;;12.57;74.48;99224.84;1052669;28;1119;-63
2022/11/23 02:16:28;;;;;;;;;;;;;;;12.57;74.76;99220.34;1053919;28;725;-63
2022/11/23 02:17:18;;;;;;;;;;;;;;;12.57;73.81;99224.84;1052780;28;1147;-63
2022/11/23 02:18:09;;;;;;;;;;;;;;;12.57;74.01;99214.16;1053343;28;647;-63
2022/11/23 02:18:59;;;;;;;;;;;;;;;12.58;73.86;99221.16;1049228;28;653;-63
2022/11/23 02:19:50;;;;;;;;;;;;;;;12.59;74.75;99214.84;1048192;28;615;-63
2022/11/23 02:20:40;;;;;;;;;;;;;;;12.58;73.75;99219.34;1050141;28;1221;-63
2022/11/23 02:21:30;;;;;;;;;;;;;;;12.61;73.59;99224.38;1049286;28;681;-63
2022/11/23 02:22:21;;;;;;;;;;;;;;;12.63;74.06;99225.09;1049128;28;696;-64
2022/11/23 02:23:11;;;;;;;;;;;;;;;12.63;73.60;99225.09;1052452;28;686;-64
2022/11/23 02:24:02;;;;;;;;;;;;;;;12.62;74.77;99223.41;1057824;27;1360;-64
2022/11/23 02:24:52;;;;;;;;;;;;;;;12.60;75.04;99220.03;1050059;28;1068;-63
2022/11/23 02:25:43;;;;;;;;;;;;;;;12.63;74.31;99225.09;1053916;28;721;-63
2022/11/23 02:26:33;;;;;;;;;;;;;;;12.62;74.23;99217.22;1051985;28;1174;-63
2022/11/23 02:27:24;;;;;;;;;;;;;;;12.62;73.79;99226.06;1053404;28;702;-64
2022/11/23 02:28:14;;;;;;;;;;;;;;;12.61;74.62;99221.72;1049225;28;630;-63
2022/11/23 02:29:05;;;;;;;;;;;;;;;12.62;74.87;99218.06;1051947;28;1178;-63
2022/11/23 02:29:55;;;;;;;;;;;;;;;12.60;74.89;99221.88;1052803;28;696;-63
2022/11/23 02:30:46;;;;;;;;;;;;;;;12.62;74.71;99218.06;1053173;28;1221;-64
2022/11/23 02:31:36;;;;;;;;;;;;;;;12.60;73.81;99220.03;1052828;28;1890;-64
2022/11/23 02:32:26;;;;;;;;;;;;;;;12.56;74.24;99221.31;1052466;28;673;-63
2022/11/23 02:33:17;;;;;;;;;;;;;;;12.58;74.66;99221.16;1052936;28;661;-63
2022/11/23 02:34:07;;;;;;;;;;;;;;;12.58;74.93;99224.69;1052068;28;1096;-63
2022/11/23 02:34:58;;;;;;;;;;;;;;;12.59;74.24;99229.03;1053928;28;636;-63
2022/11/23 02:35:49;;;;;;;;;;;;;;;12.59;73.83;99223.69;1049161;28;677;-63
2022/11/23 02:36:39;;;;;;;;;;;;;;;12.58;74.83;99231.88;1048700;28;774;-63
2022/11/23 02:37:29;;;;;;;;;;;;;;;12.58;73.84;99226.53;1049378;28;617;-64
2022/11/23 02:38:20;;;;;;;;;;;;;;;12.58;75.08;99224.69;1052408;28;1246;-64
2022/11/23 02:39:11;;;;;;;;;;;;;;;12.61;74.34;99227.06;1049161;28;587;-63
2022/11/23 02:40:01;;;;;;;;;;;;;;;12.59;74.23;99226.38;1050741;28;1171;-63
2022/11/23 02:40:52;;;;;;;;;;;;;;;12.61;73.89;99221.72;1049227;28;657;-63
2022/11/23 02:41:42;;;;;;;;;;;;;;;12.58;74.17;99221.16;1049610;28;726;-63
2022/11/23 02:42:33;;;;;;;;;;;;;;;12.60;74.77;99224.53;1049047;28;700;-63
2022/11/23 02:43:23;;;;;;;;;;;;;;;12.59;74.45;99226.38;1050140;28;734;-63
2022/11/23 02:44:14;;;;;;;;;;;;;;;12.60;74.41;99225.38;1049221;28;717;-63
2022/11/23 02:45:04;;;;;;;;;;;;;;;12.60;74.18;99224.53;1052379;28;1223;-63
2022/11/23 02:45:54;;;;;;;;;;;;;;;12.60;74.14;99220.03;1052767;28;591;-64
2022/11/23 02:46:45;;;;;;;;;;;;;;;12.56;74.79;99224.00;1055416;28;692;-63
2022/11/23 02:47:35;;;;;;;;;;;;;;;12.54;73.87;99219.81;1057265;28;643;-63
2022/11/23 02:48:26;;;;;;;;;;;;;;;12.55;74.93;99219.63;1052830;28;1289;-63
2022/11/23 02:49:16;;;;;;;;;;;;;;;12.55;74.91;99222.31;1052657;28;1399;-63
2022/11/23 02:50:07;;;;;;;;;;;;;;;12.57;74.61;99228.34;1052882;28;1052;-63
2022/11/23 02:50:57;;;;;;;;;;;;;;;12.57;74.82;99231.03;1053830;28;721;-63
2022/11/23 02:51:47;;;;;;;;;;;;;;;12.58;73.95;99230.03;1049769;28;716;-63
2022/11/23 02:52:38;;;;;;;;;;;;;;;12.59;73.96;99231.72;1049934;28;1171;-63
2022/11/23 02:53:28;;;;;;;;;;;;;;;12.61;74.68;99226.22;1049162;28;618;-63
2022/11/23 02:54:19;;;;;;;;;;;;;;;12.57;74.45;99225.69;1049496;28;1163;-63
2022/11/23 02:55:09;;;;;;;;;;;;;;;12.51;74.66;99226.31;1049147;28;641;-63
2022/11/23 02:56:00;;;;;;;;;;;;;;;12.55;74.64;99232.16;1049193;28;614;-63
2022/11/23 02:56:50;;;;;;;;;;;;;;;12.54;74.81;99230.50;1049208;28;661;-63
2022/11/23 02:57:41;;;;;;;;;;;;;;;12.53;74.74;99227.00;1049485;28;1204;-63
2022/11/23 02:58:31;;;;;;;;;;;;;;;12.59;73.92;99229.03;1049787;28;696;-63
2022/11/23 02:59:22;;;;;;;;;;;;;;;12.59;74.37;99234.38;1050829;28;1186;-63
2022/11/23 03:00:12;;;;;;;;;;;;;;;12.61;74.58;99231.56;1052224;28;1186;-63
2022/11/23 03:01:03;;;;;;;;;;;;;;;12.58;74.52;99227.34;1053368;28;742;-63
2022/11/23 03:01:53;;;;;;;;;;;;;;;12.58;74.26;99235.38;1048644;28;645;-63
2022/11/23 03:02:43;;;;;;;;;;;;;;;12.58;74.00;99232.69;1050678;28;715;-63
2022/11/23 03:03:34;;;;;;;;;;;;;;;12.59;74.01;99233.53;1056569;28;1290;-63
2022/11/23 03:04:24;;;;;;;;;;;;;;;12.59;73.80;99233.53;1056672;28;693;-63
2022/11/23 03:05:15;;;;;;;;;;;;;;;12.58;74.03;99232.69;1049418;28;668;-63
2022/11/23 03:06:05;;;;;;;;;;;;;;;12.59;73.90;99230.88;1051917;28;924;-63
2022/11/23 03:06:56;;;;;;;;;;;;;;;12.59;74.81;99238.88;1053978;28;641;-64
2022/11/23 03:07:46;;;;;;;;;;;;;;;12.57;74.56;99230.19;1053347;28;722;-63
2022/11/23 03:08:36;;;;;;;;;;;;;;;12.60;74.64;99235.22;1049721;28;1008;-64
2022/11/23 03:09:27;;;;;;;;;;;;;;;12.61;73.98;99232.41;1049218;28;748;-64
2022/11/23 03:10:17;;;;;;;;;;;;;;;12.61;73.80;99236.91;1051102;28;1393;-64
2022/11/23 03:11:08;;;;;;;;;;;;;;;12.63;74.47;99237.59;1049771;28;644;-64
2022/11/23 03:11:58;;;;;;;;;;;;;;;12.63;74.11;99233.09;1048143;28;649;-63
2022/11/23 03:12:49;;;;;;;;;;;;;;;12.60;73.94;99236.06;1049159;28;697;-64
2022/11/23 03:13:39;;;;;;;;;;;;;;;12.48;73.96;99238.13;1048794;28;666;-63
2022/11/23 03:14:30;;;;;;;;;;;;;;;12.48;74.49;99238.13;1048725;28;1115;-64
2022/11/23 03:15:20;;;;;;;;;;;;;;;12.54;74.56;99243.88;1050321;28;1143;-64
2022/11/23 03:16:10;;;;;;;;;;;;;;;12.54;75.10;99242.00;1049117;28;684;-64
2022/11/23 03:17:01;;;;;;;;;;;;;;;12.57;74.44;99239.03;1048724;28;693;-64
2022/11/23 03:17:51;;;;;;;;;;;;;;;12.60;74.41;99240.56;1051397;28;1217;-63
2022/11/23 03:18:42;;;;;;;;;;;;;;;12.61;73.72;99237.75;1053601;28;1433;-64
2022/11/23 03:19:32;;;;;;;;;;;;;;;12.60;74.59;99238.75;1052702;28;1162;-63
2022/11/23 03:20:23;;;;;;;;;;;;;;;12.59;73.81;99241.56;1053152;28;721;-63
2022/11/23 03:21:13;;;;;;;;;;;;;;;12.57;74.48;99240.88;1052647;28;1008;-63
2022/11/23 03:22:03;;;;;;;;;;;;;;;12.60;74.14;99243.25;1053841;28;695;-63
2022/11/23 03:22:54;;;;;;;;;;;;;;;12.60;74.49;99244.09;1051958;28;1118;-64
2022/11/23 03:23:44;;;;;;;;;;;;;;;12.57;74.23;99246.22;1053194;28;702;-64
2022/11/23 03:24:35;;;;;;;;;;;;;;;12.55;73.58;99254.38;1052576;28;1107;-64
2022/11/23 03:25:25;;;;;;;;;;;;;;;12.57;74.03;99246.22;1053532;28;798;-63
2022/11/23 03:26:16;;;;;;;;;;;;;;;12.57;74.46;99244.38;1049094;28;653;-64
2022/11/23 03:27:06;;;;;;;;;;;;;;;12.55;74.50;99251.72;1053986;28;1162;-64
2022/11/23 03:27:56;;;;;;;;;;;;;;;12.58;74.92;99253.25;1057220;28;526;-64
2022/11/23 03:28:47;;;;;;;;;;;;;;;12.59;74.01;99250.41;1049191;28;700;-64
2022/11/23 03:29:37;;;;;;;;;;;;;;;12.56;74.65;99252.53;1049066;28;559;-64
2022/11/23 03:30:28;;;;;;;;;;;;;;;12.54;74.31;99250.03;1049616;28;1079;-63
2022/11/23 03:31:18;;;;;;;;;;;;;;;12.50;74.59;99252.19;1053799;28;1958;-64
2022/11/23 03:32:09;;;;;;;;;;;;;;;12.53;74.17;99253.72;1049082;28;622;-64
2022/11/23 03:32:59;;;;;;;;;;;;;;;12.55;74.92;99253.53;1049269;28;653;-63
2022/11/23 03:33:50;;;;;;;;;;;;;;;12.55;74.01;99253.53;1053278;28;637;-64
2022/11/23 03:34:40;;;;;;;;;;;;;;;12.56;74.23;99256.06;1052677;28;1167;-64
2022/11/23 03:35:30;;;;;;;;;;;;;;;12.54;74.43;99252.69;1053144;28;1218;-64
2022/11/23 03:36:21;;;;;;;;;;;;;;;12.56;74.55;99249.88;1054037;28;734;-63
2022/11/23 03:37:11;;;;;;;;;;;;;;;12.59;74.59;99249.56;1053870;28;1134;-63
2022/11/23 03:38:02;;;;;;;;;;;;;;;12.59;74.23;99261.09;1054578;28;706;-64
2022/11/23 03:38:52;;;;;;;;;;;;;;;12.55;74.43;99253.53;1049773;28;625;-64
2022/11/23 03:39:43;;;;;;;;;;;;;;;12.54;73.95;99254.56;1052564;28;1036;-64
2022/11/23 03:40:33;;;;;;;;;;;;;;;12.56;74.84;99252.53;1054086;28;716;-64
2022/11/23 03:41:23;;;;;;;;;;;;;;;12.57;75.06;99249.72;1053812;28;1241;-64
2022/11/23 03:42:14;;;;;;;;;;;;;;;12.60;75.03;99254.78;1053995;28;645;-64
2022/11/23 03:43:04;;;;;;;;;;;;;;;12.55;73.93;99254.38;1053708;28;1095;-64
2022/11/23 03:43:55;;;;;;;;;;;;;;;12.58;74.01;99256.75;1053952;28;638;-64
2022/11/23 03:44:45;;;;;;;;;;;;;;;12.57;74.83;99251.56;1053297;28;1170;-64
2022/11/23 03:45:35;;;;;;;;;;;;;;;12.58;74.13;99259.44;1054012;28;685;-64
2022/11/23 03:46:26;;;;;;;;;;;;;;;12.55;74.79;99251.72;1049852;28;665;-64
2022/11/23 03:47:16;;;;;;;;;;;;;;;12.55;73.97;99250.88;1049796;28;566;-64
2022/11/23 03:48:07;;;;;;;;;;;;;;;12.59;74.99;99254.91;1050339;28;637;-64
2022/11/23 03:48:57;;;;;;;;;;;;;;;12.56;74.42;99255.22;1049761;28;646;-64
2022/11/23 03:49:48;;;;;;;;;;;;;;;12.58;74.03;99251.41;1050064;28;1067;-63
2022/11/23 03:50:38;;;;;;;;;;;;;;;12.59;74.07;99258.44;1050007;28;746;-63
2022/11/23 03:51:29;;;;;;;;;;;;;;;12.60;74.45;99246.75;1049090;28;1882;-63
2022/11/23 03:52:19;;;;;;;;;;;;;;;12.62;74.48;99257.28;1053613;28;759;-63
2022/11/23 03:53:09;;;;;;;;;;;;;;;12.58;74.12;99254.09;1049743;28;629;-63
2022/11/23 03:54:00;;;;;;;;;;;;;;;12.57;74.16;99251.56;1051502;28;996;-64
2022/11/23 03:54:50;;;;;;;;;;;;;;;12.52;73.89;99254.72;1053845;28;657;-63
2022/11/23 03:55:41;;;;;;;;;;;;;;;12.50;73.90;99248.66;1054450;28;710;-63
2022/11/23 03:56:31;;;;;;;;;;;;;;;12.51;74.94;99251.19;1049819;28;688;-63
2022/11/23 03:57:22;;;;;;;;;;;;;;;12.52;74.61;99255.53;1052814;28;1155;-63
2022/11/23 03:58:12;;;;;;;;;;;;;;;12.54;74.08;99252.69;1049834;28;653;-64
2022/11/23 03:59:02;;;;;;;;;;;;;;;12.55;73.97;99258.88;1053012;28;937;-64
2022/11/23 03:59:53;;;;;;;;;;;;;;;12.47;73.64;99257.81;1049564;28;665;-64
2022/11/23 04:00:43;;;;;;;;;;;;;;;12.48;73.99;99247.97;1053197;28;883;-64
2022/11/23 04:01:34;;;;;;;;;;;;;;;12.50;74.63;99251.34;1049304;28;677;-64
2022/11/23 04:02:24;;;;;;;;;;;;;;;12.49;74.55;99247.84;1050662;28;1086;-64
2022/11/23 04:03:15;;;;;;;;;;;;;;;12.53;74.24;99245.69;1054510;28;649;-63
2022/11/23 04:04:05;;;;;;;;;;;;;;;12.48;73.92;99240.81;1050472;28;1091;-63
2022/11/23 04:04:55;;;;;;;;;;;;;;;12.50;74.23;99252.19;1054535;28;625;-63
2022/11/23 04:05:46;;;;;;;;;;;;;;;12.52;74.85;99254.72;1052598;28;1076;-63
2022/11/23 04:06:36;;;;;;;;;;;;;;;12.55;74.18;99253.53;1054357;28;672;-63
2022/11/23 04:07:27;;;;;;;;;;;;;;;12.54;74.44;99244.69;1050864;28;1152;-64
2022/11/23 04:08:17;;;;;;;;;;;;;;;12.55;74.39;99241.00;1053727;28;674;-64
2022/11/23 04:09:08;;;;;;;;;;;;;;;12.57;73.83;99247.06;1053293;28;605;-64
2022/11/23 04:09:58;;;;;;;;;;;;;;;12.57;74.33;99241.72;1050030;28;1182;-63
2022/11/23 04:10:49;;;;;;;;;;;;;;;12.58;74.33;99243.38;1052462;28;1119;-63
2022/11/23 04:11:39;;;;;;;;;;;;;;;12.59;74.13;99242.41;1054216;28;1917;-63
2022/11/23 04:12:29;;;;;;;;;;;;;;;12.57;74.16;99240.88;1052529;28;786;-63
2022/11/23 04:13:20;;;;;;;;;;;;;;;12.57;73.94;99244.38;1051579;28;690;-63
2022/11/23 04:14:10;;;;;;;;;;;;;;;12.59;74.70;99244.22;1052595;28;1139;-63
2022/11/23 04:15:01;;;;;;;;;;;;;;;12.60;74.76;99241.41;1054385;28;761;-63
2022/11/23 04:15:51;;;;;;;;;;;;;;;12.62;74.16;99243.94;1052807;28;1103;-64
2022/11/23 04:16:42;;;;;;;;;;;;;;;12.60;74.02;99241.41;1051949;28;1003;-63
2022/11/23 04:17:32;;;;;;;;;;;;;;;12.61;74.59;99243.09;1049140;28;638;-64
2022/11/23 04:18:22;;;;;;;;;;;;;;;12.63;73.80;99248.28;1049352;28;1407;-64
2022/11/23 04:19:13;;;;;;;;;;;;;;;12.62;74.27;99239.44;1052061;28;1316;-63
2022/11/23 04:20:03;;;;;;;;;;;;;;;12.63;74.26;99240.28;1049793;28;1193;-64
2022/11/23 04:20:54;;;;;;;;;;;;;;;12.62;74.35;99242.09;1049852;28;1339;-64
2022/11/23 04:21:44;;;;;;;;;;;;;;;12.62;74.19;99247.44;1049280;28;1076;-63
2022/11/23 04:22:35;;;;;;;;;;;;;;;12.63;74.50;99248.28;1053962;28;716;-63
2022/11/23 04:23:25;;;;;;;;;;;;;;;12.61;73.77;99243.09;1053059;28;1162;-63
2022/11/23 04:24:15;;;;;;;;;;;;;;;12.64;73.97;99249.97;1053943;28;866;-63
2022/11/23 04:25:06;;;;;;;;;;;;;;;12.62;74.53;99252.78;1052481;28;1171;-63
2022/11/23 04:25:56;;;;;;;;;;;;;;;12.62;74.01;99250.13;1054304;28;1019;-63
2022/11/23 04:26:47;;;;;;;;;;;;;;;12.63;74.86;99246.47;1053598;28;1202;-63
2022/11/23 04:27:37;;;;;;;;;;;;;;;12.62;74.45;99250.13;1054208;28;714;-63